Airfield :
LOGIN :

Register | Disclaimer

   EN    FR    IT 

 










Legend :    VFR   Marginal VFR   IFR   Intensive IFR   Very Intensive IFR
Visi :
Ceiling :
>= 8 km
>= 3000ft
5 to 8 km
1000 to 3000 ft
1500m to 5 km
500 to 1000 ft
800 to 1500m
200 to 500 ft
< 800m
< 200 ft
Symbols :   Thunderstorms  Fog  Heavy snow  Heavy precipitations  Wind > 20 kt
SIGMETs :     Misc.  Thunderstorms  Icing  Turbulence  Mountain Waves  Volcanic Ashes






- Airport Elevation : 157 ft
- IATA code : SFT


ESNS - Skellefteå

CURRENT METAR :
  • 251920Z 16007KT 130V190 CAVOK 13/10 Q1006

EXPIRED METARs :
  • 251850Z 16009KT 120V190 CAVOK 14/10 Q1006
  • 251820Z 15006KT 120V180 CAVOK 16/09 Q1005
  • 251750Z 17008KT 130V200 CAVOK 16/09 Q1006
  • 251720Z 16005KT 130V190 CAVOK 17/08 Q1006
  • 251650Z 16006KT CAVOK 18/07 Q1006

TAF TAF ESNS
Valid from the 25 at 18:00 until the 25 at 22:00 UTC


251730Z 2518/2522 15007KT CAVOK
PROB40 2518/2519 4000 RA BKN010 BKN040CB
PROB40 2519/2522 4000 BR BKN004



MET'MAP, your aeronautical weather chart ! - Copyright ORBIFLY December 2007 - Disclaimer

ORBIFLY MET'MAP TEAM :

Programming & Development : Alexandra Zaïnal
Original concept : Baudouin d'Aumeries
Technical & hardware support : Manuel Goepfert
Assistance : Marc-Olivier Méhu

Contact : metmap@orbifly.com




SOURCES & CREDITS :

   NOAA